MSSS weather

Ilopango International Airport
San Salvador, San Salvador, El Salvador

Public forecast

Using degrees Celsius for public forecast. Weather courtesy of forecast.io.

Current aviation weather report (METAR) for Ilopango International Airport

Retrieved 2019/12/12 04:50 UTC (57 minutes ago):

MSSS 120450Z 32004KT CAVOK 23/19 Q1018 A3007

Aviation forecast (TAF) for Ilopango International Airport

Forecast is more than 6 hours old.

Retrieved 2019/12/11 18:30 UTC (11 hours ago):

TAF MSSS 111525Z 1118/1218 35008KT 9999 FEW043 TX31/1119Z TN19/1212Z TEMPO 1120/1204 18005KT BKN060 PROB30 1201/1203 RA FM120400 34003KT 9999 FEW050 FM121200 35009KT CAVOK